Time,TemperatureF,DewpointF,PressureIn,WindDirection,WindDirectionDegrees,WindSpeedMPH,WindSpeedGustMPH,Humidity,HourlyPrecipIn,Conditions,Clouds,dailyrainin,SoftwareType,DateUTC
2013-02-25 00:00:00,35.0,28.5,30.01,NW,326,0.0,0.0,77,0.00,,,0.01,WUHU216DAVISVP2,2013-02-25 05:00:00,
2013-02-25 00:05:00,34.9,28.5,30.01,NW,326,0.0,0.0,77,0.00,,,0.00,WUHU216DAVISVP2,2013-02-25 05:05:00,
2013-02-25 00:10:00,34.9,28.1,30.01,NW,326,0.0,0.0,76,0.00,,,0.00,WUHU216DAVISVP2,2013-02-25 05:10:00,
2013-02-25 00:15:00,35.0,28.2,30.01,NW,326,0.0,0.0,76,0.00,,,0.00,WUHU216DAVISVP2,2013-02-25 05:15:00,
2013-02-25 00:20:00,35.3,28.5,30.01,NW,326,0.0,0.0,76,0.00,,,0.00,WUHU216DAVISVP2,2013-02-25 05:20:00,
2013-02-25 00:25:00,35.5,28.7,30.01,NW,326,0.0,0.0,76,0.00,,,0.00,WUHU216DAVISVP2,2013-02-25 05:25:00,
2013-02-25 00:30:00,35.3,28.5,30.02,NW,326,0.0,0.0,76,0.00,,,0.00,WUHU216DAVISVP2,2013-02-25 05:30:00,
2013-02-25 00:35:00,35.3,28.5,30.02,NW,326,0.0,0.0,76,0.00,,,0.00,WUHU216DAVISVP2,2013-02-25 05:35:00,
2013-02-25 00:40:00,35.5,28.4,30.02,NW,326,0.0,0.0,75,0.00,,,0.00,WUHU216DAVISVP2,2013-02-25 05:40:00,
2013-02-25 00:45:00,35.6,28.2,30.03,NW,326,0.0,0.0,74,0.00,,,0.00,WUHU216DAVISVP2,2013-02-25 05:45:00,
2013-02-25 00:50:00,35.9,28.1,30.03,NW,326,0.0,1.0,73,0.00,,,0.00,WUHU216DAVISVP2,2013-02-25 05:50:00,
2013-02-25 00:55:00,36.8,28.7,30.03,NNE,13,0.0,4.0,72,0.00,,,0.00,WUHU216DAVISVP2,2013-02-25 05:55:00,
2013-02-25 01:00:00,37.8,29.3,30.05,North,359,0.0,7.0,71,0.00,,,0.00,WUHU216DAVISVP2,2013-02-25 06:00:00,
2013-02-25 01:05:00,38.5,29.6,30.05,NE,35,1.0,9.0,70,0.00,,,0.00,WUHU216DAVISVP2,2013-02-25 06:05:00,
2013-02-25 01:10:00,38.9,29.7,30.05,East,88,1.0,9.0,69,0.00,,,0.00,WUHU216DAVISVP2,2013-02-25 06:10:00,
2013-02-25 01:15:00,39.3,29.7,30.05,NE,49,0.0,9.0,68,0.00,,,0.00,WUHU216DAVISVP2,2013-02-25 06:15:00,
2013-02-25 01:20:00,39.3,29.7,30.05,East,89,1.0,9.0,68,0.00,,,0.00,WUHU216DAVISVP2,2013-02-25 06:20:00,
2013-02-25 01:25:00,39.2,29.6,30.05,East,88,1.0,8.0,68,0.00,,,0.00,WUHU216DAVISVP2,2013-02-25 06:25:00,
2013-02-25 01:30:00,38.9,29.3,30.05,East,86,0.0,4.0,68,0.00,,,0.00,WUHU216DAVISVP2,2013-02-25 06:30:00,
2013-02-25 01:35:00,38.6,29.0,30.05,East,80,0.0,4.0,68,0.00,,,0.00,WUHU216DAVISVP2,2013-02-25 06:35:00,
2013-02-25 01:40:00,38.2,28.6,30.05,East,80,0.0,2.0,68,0.00,,,0.00,WUHU216DAVISVP2,2013-02-25 06:40:00,
2013-02-25 01:45:00,37.8,28.3,30.06,East,80,0.0,4.0,68,0.00,,,0.00,WUHU216DAVISVP2,2013-02-25 06:45:00,
2013-02-25 01:50:00,37.5,28.3,30.06,East,80,0.0,4.0,69,0.00,,,0.00,WUHU216DAVISVP2,2013-02-25 06:50:00,
2013-02-25 01:55:00,37.2,28.0,30.06,East,80,0.0,2.0,69,0.00,,,0.00,WUHU216DAVISVP2,2013-02-25 06:55:00,
2013-02-25 02:00:00,36.9,27.8,30.06,ENE,76,0.0,2.0,69,0.00,,,0.00,WUHU216DAVISVP2,2013-02-25 07:00:00,
2013-02-25 02:05:00,36.8,27.7,30.06,East,86,2.0,7.0,69,0.00,,,0.00,WUHU216DAVISVP2,2013-02-25 07:05:00,
2013-02-25 02:10:00,36.8,27.7,30.06,ENE,73,0.0,7.0,69,0.00,,,0.00,WUHU216DAVISVP2,2013-02-25 07:10:00,
2013-02-25 02:15:00,36.8,27.7,30.07,ENE,64,2.0,6.0,69,0.00,,,0.00,WUHU216DAVISVP2,2013-02-25 07:15:00,
2013-02-25 02:20:00,36.8,27.7,30.07,ENE,58,6.0,6.0,69,0.00,,,0.00,WUHU216DAVISVP2,2013-02-25 07:20:00,
2013-02-25 02:25:00,36.8,27.3,30.07,ENE,66,7.0,7.0,68,0.00,,,0.00,WUHU216DAVISVP2,2013-02-25 07:25:00,
2013-02-25 02:30:00,36.6,26.8,30.07,ENE,71,2.0,9.0,67,0.00,,,0.00,WUHU216DAVISVP2,2013-02-25 07:30:00,
2013-02-25 02:35:00,36.5,26.7,30.07,ENE,71,2.0,9.0,67,0.00,,,0.00,WUHU216DAVISVP2,2013-02-25 07:35:00,
2013-02-25 02:40:00,36.3,26.5,30.07,ENE,71,0.0,8.0,67,0.00,,,0.00,WUHU216DAVISVP2,2013-02-25 07:40:00,
2013-02-25 02:45:00,36.0,26.2,30.07,ENE,71,0.0,4.0,67,0.00,,,0.00,WUHU216DAVISVP2,2013-02-25 07:45:00,
2013-02-25 02:50:00,35.9,26.1,30.07,East,90,0.0,7.0,67,0.00,,,0.00,WUHU216DAVISVP2,2013-02-25 07:50:00,
2013-02-25 02:55:00,35.8,26.3,30.07,East,83,0.0,7.0,68,0.00,,,0.00,WUHU216DAVISVP2,2013-02-25 07:55:00,
2013-02-25 03:00:00,35.5,26.1,30.07,ESE,113,7.0,7.0,68,0.00,,,0.00,WUHU216DAVISVP2,2013-02-25 08:00:00,
2013-02-25 03:05:00,35.3,25.9,30.07,ENE,65,4.0,9.0,68,0.00,,,0.00,WUHU216DAVISVP2,2013-02-25 08:05:00,
2013-02-25 03:10:00,35.2,25.8,30.07,East,80,0.0,9.0,68,0.00,,,0.00,WUHU216DAVISVP2,2013-02-25 08:10:00,
2013-02-25 03:15:00,35.0,25.2,30.07,ENE,71,2.0,7.0,67,0.00,,,0.00,WUHU216DAVISVP2,2013-02-25 08:15:00,
2013-02-25 03:20:00,35.0,25.2,30.07,ENE,69,1.0,7.0,67,0.00,,,0.00,WUHU216DAVISVP2,2013-02-25 08:20:00,
2013-02-25 03:25:00,34.9,25.1,30.07,ENE,66,0.0,6.0,67,0.00,,,0.00,WUHU216DAVISVP2,2013-02-25 08:25:00,
2013-02-25 03:30:00,34.7,24.9,30.06,ENE,66,0.0,6.0,67,0.00,,,0.00,WUHU216DAVISVP2,2013-02-25 08:30:00,
2013-02-25 03:35:00,34.6,25.2,30.06,ENE,59,1.0,6.0,68,0.00,,,0.00,WUHU216DAVISVP2,2013-02-25 08:35:00,
2013-02-25 03:40:00,34.3,24.8,30.06,ENE,59,1.0,4.0,68,0.00,,,0.00,WUHU216DAVISVP2,2013-02-25 08:40:00,
2013-02-25 03:45:00,34.1,24.7,30.06,ENE,72,0.0,8.0,68,0.00,,,0.00,WUHU216DAVISVP2,2013-02-25 08:45:00,
2013-02-25 03:50:00,34.0,25.0,30.06,ENE,72,0.0,8.0,69,0.00,,,0.00,WUHU216DAVISVP2,2013-02-25 08:50:00,
2013-02-25 03:55:00,33.8,24.4,30.06,ENE,68,4.0,4.0,68,0.00,,,0.00,WUHU216DAVISVP2,2013-02-25 08:55:00,
2013-02-25 04:00:00,33.8,24.4,30.07,ENE,68,1.0,4.0,68,0.00,,,0.00,WUHU216DAVISVP2,2013-02-25 09:00:00,
2013-02-25 04:05:00,33.7,24.7,30.07,East,100,1.0,6.0,69,0.00,,,0.00,WUHU216DAVISVP2,2013-02-25 09:05:00,
2013-02-25 04:10:00,33.5,24.5,30.07,North,1,6.0,7.0,69,0.00,,,0.00,WUHU216DAVISVP2,2013-02-25 09:10:00,
2013-02-25 04:15:00,33.5,24.5,30.08,NNE,24,0.0,7.0,69,0.00,,,0.00,WUHU216DAVISVP2,2013-02-25 09:15:00,
2013-02-25 04:20:00,33.4,24.0,30.08,ENE,73,2.0,4.0,68,0.00,,,0.00,WUHU216DAVISVP2,2013-02-25 09:20:00,
2013-02-25 04:25:00,33.4,24.0,30.08,ENE,64,1.0,4.0,68,0.00,,,0.00,WUHU216DAVISVP2,2013-02-25 09:25:00,
2013-02-25 04:30:00,33.4,24.0,30.09,East,95,1.0,8.0,68,0.00,,,0.00,WUHU216DAVISVP2,2013-02-25 09:30:00,
2013-02-25 04:35:00,33.2,23.8,30.09,East,100,1.0,8.0,68,0.00,,,0.00,WUHU216DAVISVP2,2013-02-25 09:35:00,
2013-02-25 04:40:00,33.1,24.1,30.09,East,100,1.0,6.0,69,0.00,,,0.00,WUHU216DAVISVP2,2013-02-25 09:40:00,
2013-02-25 04:45:00,33.1,24.1,30.10,East,100,0.0,2.0,69,0.00,,,0.00,WUHU216DAVISVP2,2013-02-25 09:45:00,
2013-02-25 04:50:00,33.1,24.1,30.10,ENE,78,0.0,7.0,69,0.00,,,0.00,WUHU216DAVISVP2,2013-02-25 09:50:00,
2013-02-25 04:55:00,32.9,23.9,30.10,ENE,78,0.0,7.0,69,0.00,,,0.00,WUHU216DAVISVP2,2013-02-25 09:55:00,
2013-02-25 05:00:00,32.9,23.9,30.10,ENE,78,0.0,6.0,69,0.00,,,0.00,WUHU216DAVISVP2,2013-02-25 10:00:00,
2013-02-25 05:05:00,32.8,23.8,30.10,ENE,78,0.0,6.0,69,0.00,,,0.00,WUHU216DAVISVP2,2013-02-25 10:05:00,
2013-02-25 05:10:00,32.8,23.5,30.10,NNE,23,1.0,6.0,68,0.00,,,0.00,WUHU216DAVISVP2,2013-02-25 10:10:00,
2013-02-25 05:15:00,32.8,23.5,30.11,East,82,2.0,8.0,68,0.00,,,0.00,WUHU216DAVISVP2,2013-02-25 10:15:00,
2013-02-25 05:20:00,32.8,23.4,30.11,ENE,58,2.0,8.0,68,0.00,,,0.00,WUHU216DAVISVP2,2013-02-25 10:20:00,
2013-02-25 05:25:00,32.7,23.4,30.11,East,85,0.0,8.0,68,0.00,,,0.00,WUHU216DAVISVP2,2013-02-25 10:25:00,
2013-02-25 05:30:00,32.7,23.3,30.11,East,79,2.0,7.0,68,0.00,,,0.00,WUHU216DAVISVP2,2013-02-25 10:30:00,
2013-02-25 05:35:00,32.7,23.4,30.11,NE,52,1.0,7.0,68,0.00,,,0.00,WUHU216DAVISVP2,2013-02-25 10:35:00,
2013-02-25 05:40:00,32.5,23.1,30.11,ENE,71,1.0,6.0,68,0.00,,,0.00,WUHU216DAVISVP2,2013-02-25 10:40:00,
2013-02-25 05:45:00,32.5,23.2,30.12,ENE,68,2.0,6.0,68,0.00,,,0.00,WUHU216DAVISVP2,2013-02-25 10:45:00,
2013-02-25 05:50:00,32.5,22.8,30.12,East,85,0.0,8.0,67,0.00,,,0.00,WUHU216DAVISVP2,2013-02-25 10:50:00,
2013-02-25 05:55:00,32.5,22.8,30.12,ENE,73,1.0,8.0,67,0.00,,,0.00,WUHU216DAVISVP2,2013-02-25 10:55:00,
2013-02-25 06:00:00,32.5,22.8,30.13,East,100,2.0,8.0,67,0.00,,,0.00,WUHU216DAVISVP2,2013-02-25 11:00:00,
2013-02-25 06:05:00,32.4,22.7,30.13,East,90,2.0,8.0,67,0.00,,,0.00,WUHU216DAVISVP2,2013-02-25 11:05:00,
2013-02-25 06:10:00,32.4,22.7,30.13,East,89,2.0,6.0,67,0.00,,,0.00,WUHU216DAVISVP2,2013-02-25 11:10:00,
2013-02-25 06:15:00,32.2,22.5,30.13,East,88,2.0,6.0,67,0.00,,,0.00,WUHU216DAVISVP2,2013-02-25 11:15:00,
2013-02-25 06:20:00,32.2,22.5,30.13,East,88,0.0,4.0,67,0.00,,,0.00,WUHU216DAVISVP2,2013-02-25 11:20:00,
2013-02-25 06:25:00,32.1,22.8,30.13,East,86,0.0,2.0,68,0.00,,,0.00,WUHU216DAVISVP2,2013-02-25 11:25:00,
2013-02-25 06:31:00,31.9,22.6,30.15,East,86,0.0,1.0,68,0.00,,,0.00,WUHU216DAVISVP2,2013-02-25 11:31:00,
2013-02-25 06:36:00,31.8,22.5,30.15,North,0,0.0,7.0,68,0.00,,,0.00,WUHU216DAVISVP2,2013-02-25 11:36:00,
2013-02-25 06:41:00,31.8,22.5,30.15,North,11,0.0,7.0,68,0.00,,,0.00,WUHU216DAVISVP2,2013-02-25 11:41:00,
2013-02-25 06:46:00,31.6,22.3,30.15,NNE,18,0.0,2.0,68,0.00,,,0.00,WUHU216DAVISVP2,2013-02-25 11:46:00,
2013-02-25 06:51:00,31.6,22.3,30.15,NNE,18,0.0,2.0,68,0.00,,,0.00,WUHU216DAVISVP2,2013-02-25 11:51:00,
2013-02-25 06:56:00,31.5,22.2,30.15,NNE,18,0.0,1.0,68,0.00,,,0.00,WUHU216DAVISVP2,2013-02-25 11:56:00,
2013-02-25 07:01:00,31.5,22.2,30.15,NNE,27,0.0,2.0,68,0.00,,,0.00,WUHU216DAVISVP2,2013-02-25 12:01:00,
2013-02-25 07:06:00,31.5,22.2,30.15,NNE,30,2.0,2.0,68,0.00,,,0.00,WUHU216DAVISVP2,2013-02-25 12:06:00,
2013-02-25 07:11:00,31.5,22.2,30.15,NNE,30,0.0,2.0,68,0.00,,,0.00,WUHU216DAVISVP2,2013-02-25 12:11:00,
2013-02-25 07:16:00,31.5,22.2,30.15,NNE,30,0.0,2.0,68,0.00,,,0.00,WUHU216DAVISVP2,2013-02-25 12:16:00,
2013-02-25 07:21:00,31.5,22.2,30.15,NE,54,1.0,2.0,68,0.00,,,0.00,WUHU216DAVISVP2,2013-02-25 12:21:00,
2013-02-25 07:26:00,31.5,22.2,30.15,NE,55,0.0,6.0,68,0.00,,,0.00,WUHU216DAVISVP2,2013-02-25 12:26:00,
2013-02-25 07:31:00,31.5,22.2,30.15,North,3,0.0,6.0,68,0.00,,,0.00,WUHU216DAVISVP2,2013-02-25 12:31:00,
2013-02-25 07:36:00,31.6,22.3,30.15,East,79,0.0,4.0,68,0.00,,,0.00,WUHU216DAVISVP2,2013-02-25 12:36:00,
2013-02-25 07:41:00,31.6,22.0,30.15,ENE,68,0.0,4.0,67,0.00,,,0.00,WUHU216DAVISVP2,2013-02-25 12:41:00,
2013-02-25 07:46:00,31.8,22.2,30.15,ENE,72,0.0,4.0,67,0.00,,,0.00,WUHU216DAVISVP2,2013-02-25 12:46:00,
2013-02-25 07:51:00,31.8,22.2,30.15,ENE,72,0.0,4.0,67,0.00,,,0.00,WUHU216DAVISVP2,2013-02-25 12:51:00,
2013-02-25 07:56:00,31.9,22.3,30.15,ENE,72,0.0,4.0,67,0.00,,,0.00,WUHU216DAVISVP2,2013-02-25 12:56:00,
2013-02-25 08:01:00,32.1,22.4,30.16,ENE,73,0.0,4.0,67,0.00,,,0.00,WUHU216DAVISVP2,2013-02-25 13:01:00,
2013-02-25 08:06:00,32.2,22.5,30.16,ENE,69,0.0,7.0,67,0.00,,,0.00,WUHU216DAVISVP2,2013-02-25 13:06:00,
2013-02-25 08:12:00,32.5,22.5,30.16,East,82,0.0,7.0,66,0.00,,,0.00,WUHU216DAVISVP2,2013-02-25 13:12:00,
2013-02-25 08:17:00,32.5,22.1,30.17,ENE,71,0.0,6.0,65,0.00,,,0.00,WUHU216DAVISVP2,2013-02-25 13:17:00,
2013-02-25 08:22:00,32.7,22.3,30.17,East,97,6.0,7.0,65,0.00,,,0.00,WUHU216DAVISVP2,2013-02-25 13:22:00,
2013-02-25 08:27:00,32.8,22.4,30.17,East,86,1.0,7.0,65,0.00,,,0.00,WUHU216DAVISVP2,2013-02-25 13:27:00,
2013-02-25 08:32:00,33.1,22.7,30.19,East,89,0.0,6.0,65,0.00,,,0.00,WUHU216DAVISVP2,2013-02-25 13:32:00,
2013-02-25 08:37:00,33.2,22.8,30.19,ENE,59,2.0,6.0,65,0.00,,,0.00,WUHU216DAVISVP2,2013-02-25 13:37:00,
2013-02-25 08:42:00,33.4,22.6,30.19,ESE,103,6.0,7.0,64,0.00,,,0.00,WUHU216DAVISVP2,2013-02-25 13:42:00,
2013-02-25 08:47:00,33.7,22.9,30.19,NE,51,1.0,7.0,64,0.00,,,0.00,WUHU216DAVISVP2,2013-02-25 13:47:00,
2013-02-25 08:52:00,33.8,23.0,30.19,NE,44,4.0,6.0,64,0.00,,,0.00,WUHU216DAVISVP2,2013-02-25 13:52:00,
2013-02-25 08:57:00,34.1,22.9,30.19,East,86,4.0,6.0,63,0.00,,,0.00,WUHU216DAVISVP2,2013-02-25 13:57:00,
2013-02-25 09:02:00,34.1,22.9,30.19,East,82,1.0,8.0,63,0.00,,,0.00,WUHU216DAVISVP2,2013-02-25 14:02:00,
2013-02-25 09:07:00,34.4,22.8,30.19,East,85,0.0,9.0,62,0.00,,,0.00,WUHU216DAVISVP2,2013-02-25 14:07:00,
2013-02-25 09:12:00,34.6,23.4,30.19,NNE,27,2.0,9.0,63,0.00,,,0.00,WUHU216DAVISVP2,2013-02-25 14:12:00,
2013-02-25 09:17:00,35.0,23.0,30.19,ESE,121,9.0,9.0,61,0.00,,,0.00,WUHU216DAVISVP2,2013-02-25 14:17:00,
2013-02-25 09:23:00,35.2,22.8,30.19,East,79,4.0,9.0,60,0.00,,,0.00,WUHU216DAVISVP2,2013-02-25 14:23:00,
2013-02-25 09:28:00,35.3,22.8,30.19,ESE,119,2.0,8.0,60,0.00,,,0.00,WUHU216DAVISVP2,2013-02-25 14:28:00,
2013-02-25 09:33:00,35.8,22.9,30.21,ENE,71,2.0,8.0,59,0.00,,,0.00,WUHU216DAVISVP2,2013-02-25 14:33:00,
2013-02-25 09:38:00,35.9,23.0,30.21,ESE,121,6.0,8.0,59,0.00,,,0.00,WUHU216DAVISVP2,2013-02-25 14:38:00,
2013-02-25 09:43:00,36.0,23.1,30.21,ESE,113,4.0,8.0,59,0.00,,,0.00,WUHU216DAVISVP2,2013-02-25 14:43:00,
2013-02-25 09:48:00,36.3,23.4,30.20,ENE,75,0.0,7.0,59,0.00,,,0.00,WUHU216DAVISVP2,2013-02-25 14:48:00,
2013-02-25 09:53:00,36.5,23.2,30.20,North,0,2.0,8.0,58,0.00,,,0.00,WUHU216DAVISVP2,2013-02-25 14:53:00,
2013-02-25 09:58:00,36.8,23.4,30.20,NNE,14,0.0,8.0,58,0.00,,,0.00,WUHU216DAVISVP2,2013-02-25 14:58:00,
2013-02-25 10:03:00,37.0,24.0,30.21,North,352,7.0,7.0,59,0.00,,,0.00,WUHU216DAVISVP2,2013-02-25 15:03:00,
2013-02-25 10:09:00,37.2,23.4,30.21,ENE,76,1.0,8.0,57,0.00,,,0.00,WUHU216DAVISVP2,2013-02-25 15:09:00,
2013-02-25 10:14:00,37.6,23.8,30.21,East,88,2.0,7.0,57,0.00,,,0.00,WUHU216DAVISVP2,2013-02-25 15:14:00,
2013-02-25 10:19:00,37.9,24.1,30.21,North,8,6.0,6.0,57,0.00,,,0.00,WUHU216DAVISVP2,2013-02-25 15:19:00,
2013-02-25 10:24:00,38.0,24.1,30.21,East,96,1.0,8.0,57,0.00,,,0.00,WUHU216DAVISVP2,2013-02-25 15:24:00,
2013-02-25 10:29:00,38.0,23.7,30.21,East,95,6.0,8.0,56,0.00,,,0.00,WUHU216DAVISVP2,2013-02-25 15:29:00,
2013-02-25 10:34:00,37.6,23.3,30.21,East,79,1.0,8.0,56,0.00,,,0.00,WUHU216DAVISVP2,2013-02-25 15:34:00,
2013-02-25 10:39:00,37.8,23.5,30.21,North,0,1.0,8.0,56,0.00,,,0.00,WUHU216DAVISVP2,2013-02-25 15:39:00,
2013-02-25 10:44:00,38.0,23.7,30.21,East,92,2.0,6.0,56,0.00,,,0.00,WUHU216DAVISVP2,2013-02-25 15:44:00,
2013-02-25 10:49:00,38.0,23.3,30.20,East,79,0.0,6.0,55,0.00,,,0.00,WUHU216DAVISVP2,2013-02-25 15:49:00,
2013-02-25 10:54:00,38.2,23.5,30.20,North,350,2.0,8.0,55,0.00,,,0.00,WUHU216DAVISVP2,2013-02-25 15:54:00,
2013-02-25 10:59:00,38.5,24.2,30.20,East,88,0.0,8.0,56,0.00,,,0.00,WUHU216DAVISVP2,2013-02-25 15:59:00,
2013-02-25 11:04:00,38.3,23.1,30.20,East,80,1.0,6.0,54,0.00,,,0.00,WUHU216DAVISVP2,2013-02-25 16:04:00,
2013-02-25 11:09:00,38.6,23.8,30.20,ENE,76,2.0,6.0,55,0.00,,,0.00,WUHU216DAVISVP2,2013-02-25 16:09:00,
2013-02-25 11:14:00,38.8,24.0,30.20,ENE,66,0.0,6.0,55,0.00,,,0.00,WUHU216DAVISVP2,2013-02-25 16:14:00,
2013-02-25 11:19:00,38.6,22.9,30.19,ENE,68,6.0,8.0,53,0.00,,,0.00,WUHU216DAVISVP2,2013-02-25 16:19:00,
2013-02-25 11:24:00,38.9,23.7,30.19,NNW,342,1.0,8.0,54,0.00,,,0.00,WUHU216DAVISVP2,2013-02-25 16:24:00,
2013-02-25 11:29:00,39.1,23.4,30.19,ENE,71,2.0,7.0,53,0.00,,,0.00,WUHU216DAVISVP2,2013-02-25 16:29:00,
2013-02-25 11:34:00,38.9,22.7,30.19,East,99,0.0,7.0,52,0.00,,,0.00,WUHU216DAVISVP2,2013-02-25 16:34:00,
2013-02-25 11:39:00,39.3,23.6,30.19,NNW,339,2.0,8.0,53,0.00,,,0.00,WUHU216DAVISVP2,2013-02-25 16:39:00,
2013-02-25 11:44:00,39.5,23.3,30.19,North,1,2.0,8.0,52,0.00,,,0.00,WUHU216DAVISVP2,2013-02-25 16:44:00,
2013-02-25 11:49:00,39.6,23.9,30.19,NW,318,0.0,7.0,53,0.00,,,0.00,WUHU216DAVISVP2,2013-02-25 16:49:00,
2013-02-25 11:54:00,39.8,23.6,30.19,NNE,14,2.0,7.0,52,0.00,,,0.00,WUHU216DAVISVP2,2013-02-25 16:54:00,
2013-02-25 11:59:00,39.9,23.7,30.19,ENE,58,0.0,7.0,52,0.00,,,0.00,WUHU216DAVISVP2,2013-02-25 16:59:00,
2013-02-25 12:04:00,40.1,23.9,30.18,ESE,117,0.0,7.0,52,0.00,,,0.00,WUHU216DAVISVP2,2013-02-25 17:04:00,
2013-02-25 12:09:00,39.8,23.1,30.18,East,83,0.0,7.0,51,0.00,,,0.00,WUHU216DAVISVP2,2013-02-25 17:09:00,
2013-02-25 12:14:00,39.8,23.1,30.18,NE,56,1.0,7.0,51,0.00,,,0.00,WUHU216DAVISVP2,2013-02-25 17:14:00,
2013-02-25 12:19:00,40.3,24.0,30.18,North,0,6.0,7.0,52,0.00,,,0.00,WUHU216DAVISVP2,2013-02-25 17:19:00,
2013-02-25 12:24:00,40.6,24.3,30.18,North,0,6.0,8.0,52,0.00,,,0.00,WUHU216DAVISVP2,2013-02-25 17:24:00,
2013-02-25 12:29:00,40.9,24.6,30.18,East,90,4.0,8.0,52,0.00,,,0.00,WUHU216DAVISVP2,2013-02-25 17:29:00,
2013-02-25 12:34:00,40.5,23.3,30.17,East,90,0.0,7.0,50,0.00,,,0.00,WUHU216DAVISVP2,2013-02-25 17:34:00,
2013-02-25 12:39:00,40.6,24.3,30.17,North,353,6.0,7.0,52,0.00,,,0.00,WUHU216DAVISVP2,2013-02-25 17:39:00,
2013-02-25 12:44:00,40.9,24.1,30.17,ENE,65,6.0,9.0,51,0.00,,,0.00,WUHU216DAVISVP2,2013-02-25 17:44:00,
2013-02-25 12:49:00,41.1,24.3,30.16,NNW,344,2.0,9.0,51,0.00,,,0.00,WUHU216DAVISVP2,2013-02-25 17:49:00,
2013-02-25 12:54:00,40.9,23.1,30.16,East,88,6.0,7.0,49,0.00,,,0.00,WUHU216DAVISVP2,2013-02-25 17:54:00,
2013-02-25 12:59:00,41.1,23.8,30.16,North,0,2.0,8.0,50,0.00,,,0.00,WUHU216DAVISVP2,2013-02-25 17:59:00,
2013-02-25 13:04:00,41.3,23.5,30.14,East,83,4.0,8.0,49,0.00,,,0.00,WUHU216DAVISVP2,2013-02-25 18:04:00,
2013-02-25 13:09:00,41.1,23.8,30.14,ENE,78,0.0,10.0,50,0.00,,,0.00,WUHU216DAVISVP2,2013-02-25 18:09:00,
2013-02-25 13:14:00,41.2,23.9,30.14,NE,55,2.0,10.0,50,0.00,,,0.00,WUHU216DAVISVP2,2013-02-25 18:14:00,
2013-02-25 13:19:00,41.5,24.2,30.15,East,79,0.0,8.0,50,0.00,,,0.00,WUHU216DAVISVP2,2013-02-25 18:19:00,
2013-02-25 13:24:00,41.5,23.7,30.15,East,79,0.0,6.0,49,0.00,,,0.00,WUHU216DAVISVP2,2013-02-25 18:24:00,
2013-02-25 13:29:00,41.8,24.0,30.15,NW,322,1.0,2.0,49,0.00,,,0.00,WUHU216DAVISVP2,2013-02-25 18:29:00,
2013-02-25 13:34:00,41.8,24.0,30.15,NE,45,4.0,4.0,49,0.00,,,0.00,WUHU216DAVISVP2,2013-02-25 18:34:00,
2013-02-25 13:39:00,41.6,23.3,30.15,East,97,0.0,7.0,48,0.00,,,0.00,WUHU216DAVISVP2,2013-02-25 18:39:00,
2013-02-25 13:44:00,41.5,23.7,30.15,East,96,1.0,7.0,49,0.00,,,0.00,WUHU216DAVISVP2,2013-02-25 18:44:00,
2013-02-25 13:49:00,41.3,23.5,30.15,East,96,0.0,4.0,49,0.00,,,0.00,WUHU216DAVISVP2,2013-02-25 18:49:00,
2013-02-25 13:54:00,41.6,23.8,30.15,North,10,0.0,4.0,49,0.00,,,0.00,WUHU216DAVISVP2,2013-02-25 18:54:00,
2013-02-25 13:59:00,41.5,24.2,30.15,East,86,0.0,4.0,50,0.00,,,0.00,WUHU216DAVISVP2,2013-02-25 18:59:00,
2013-02-25 14:04:00,41.6,24.3,30.16,North,357,0.0,4.0,50,0.00,,,0.00,WUHU216DAVISVP2,2013-02-25 19:04:00,
2013-02-25 14:09:00,41.6,23.8,30.16,East,80,0.0,4.0,49,0.00,,,0.00,WUHU216DAVISVP2,2013-02-25 19:09:00,
2013-02-25 14:14:00,41.6,24.3,30.16,East,80,0.0,4.0,50,0.00,,,0.00,WUHU216DAVISVP2,2013-02-25 19:14:00,
2013-02-25 14:19:00,41.8,24.5,30.15,East,80,0.0,2.0,50,0.00,,,0.00,WUHU216DAVISVP2,2013-02-25 19:19:00,
2013-02-25 14:24:00,41.9,24.6,30.15,ENE,75,0.0,2.0,50,0.00,,,0.00,WUHU216DAVISVP2,2013-02-25 19:24:00,
2013-02-25 14:29:00,41.8,24.0,30.15,East,85,0.0,6.0,49,0.00,,,0.00,WUHU216DAVISVP2,2013-02-25 19:29:00,
2013-02-25 14:34:00,41.8,24.5,30.15,East,83,1.0,6.0,50,0.00,,,0.00,WUHU216DAVISVP2,2013-02-25 19:34:00,
2013-02-25 14:39:00,41.8,24.5,30.15,East,83,0.0,4.0,50,0.00,,,0.00,WUHU216DAVISVP2,2013-02-25 19:39:00,
2013-02-25 14:44:00,41.9,24.1,30.15,East,83,0.0,4.0,49,0.00,,,0.00,WUHU216DAVISVP2,2013-02-25 19:44:00,
2013-02-25 14:49:00,41.9,24.1,30.14,East,83,0.0,2.0,49,0.00,,,0.00,WUHU216DAVISVP2,2013-02-25 19:49:00,
2013-02-25 14:54:00,41.8,23.5,30.14,ENE,76,1.0,7.0,48,0.00,,,0.00,WUHU216DAVISVP2,2013-02-25 19:54:00,
2013-02-25 14:59:00,41.5,23.2,30.14,ENE,76,1.0,7.0,48,0.00,,,0.00,WUHU216DAVISVP2,2013-02-25 19:59:00,
2013-02-25 15:04:00,41.5,23.7,30.14,ENE,76,0.0,4.0,49,0.00,,,0.00,WUHU216DAVISVP2,2013-02-25 20:04:00,
2013-02-25 15:09:00,41.5,23.7,30.14,ENE,76,2.0,4.0,49,0.00,,,0.00,WUHU216DAVISVP2,2013-02-25 20:09:00,
2013-02-25 15:14:00,41.6,23.8,30.14,ENE,76,1.0,4.0,49,0.00,,,0.00,WUHU216DAVISVP2,2013-02-25 20:14:00,
2013-02-25 15:19:00,41.6,23.8,30.14,ENE,76,0.0,4.0,49,0.00,,,0.00,WUHU216DAVISVP2,2013-02-25 20:19:00,
2013-02-25 15:24:00,41.8,24.0,30.14,ENE,75,0.0,6.0,49,0.00,,,0.00,WUHU216DAVISVP2,2013-02-25 20:24:00,
2013-02-25 15:29:00,41.6,23.3,30.14,ENE,75,0.0,6.0,48,0.00,,,0.00,WUHU216DAVISVP2,2013-02-25 20:29:00,
2013-02-25 15:34:00,41.6,23.3,30.14,East,86,2.0,6.0,48,0.00,,,0.00,WUHU216DAVISVP2,2013-02-25 20:34:00,
2013-02-25 15:39:00,41.5,23.7,30.14,East,85,1.0,6.0,49,0.00,,,0.00,WUHU216DAVISVP2,2013-02-25 20:39:00,
2013-02-25 15:44:00,41.3,24.0,30.14,East,86,0.0,4.0,50,0.00,,,0.00,WUHU216DAVISVP2,2013-02-25 20:44:00,
2013-02-25 15:49:00,41.3,23.6,30.12,East,86,0.0,4.0,49,0.00,,,0.00,WUHU216DAVISVP2,2013-02-25 20:49:00,
2013-02-25 15:54:00,41.3,24.0,30.12,East,86,0.0,2.0,50,0.00,,,0.00,WUHU216DAVISVP2,2013-02-25 20:54:00,
2013-02-25 15:59:00,41.5,24.2,30.12,East,86,0.0,2.0,50,0.00,,,0.00,WUHU216DAVISVP2,2013-02-25 20:59:00,
2013-02-25 16:04:00,41.3,24.0,30.13,East,86,0.0,4.0,50,0.00,,,0.00,WUHU216DAVISVP2,2013-02-25 21:04:00,
2013-02-25 16:09:00,41.2,23.9,30.13,NE,49,0.0,4.0,50,0.00,,,0.00,WUHU216DAVISVP2,2013-02-25 21:09:00,
2013-02-25 16:14:00,41.2,23.9,30.13,ENE,58,0.0,2.0,50,0.00,,,0.00,WUHU216DAVISVP2,2013-02-25 21:14:00,
2013-02-25 16:19:00,41.2,23.9,30.13,ENE,62,0.0,2.0,50,0.00,,,0.00,WUHU216DAVISVP2,2013-02-25 21:19:00,
2013-02-25 16:24:00,41.2,23.9,30.13,NE,54,0.0,2.0,50,0.00,,,0.00,WUHU216DAVISVP2,2013-02-25 21:24:00,
2013-02-25 16:29:00,41.2,23.9,30.13,NE,54,0.0,1.0,50,0.00,,,0.00,WUHU216DAVISVP2,2013-02-25 21:29:00,
2013-02-25 16:34:00,41.1,24.3,30.14,NE,54,0.0,1.0,51,0.00,,,0.00,WUHU216DAVISVP2,2013-02-25 21:34:00,
2013-02-25 16:39:00,41.1,24.3,30.14,NE,42,0.0,2.0,51,0.00,,,0.00,WUHU216DAVISVP2,2013-02-25 21:39:00,
2013-02-25 16:44:00,41.1,24.8,30.14,NE,42,0.0,2.0,52,0.00,,,0.00,WUHU216DAVISVP2,2013-02-25 21:44:00,
2013-02-25 16:49:00,40.9,24.1,30.14,NE,42,0.0,0.0,51,0.00,,,0.00,WUHU216DAVISVP2,2013-02-25 21:49:00,
2013-02-25 16:54:00,40.8,24.0,30.14,NE,42,0.0,0.0,51,0.00,,,0.00,WUHU216DAVISVP2,2013-02-25 21:54:00,
2013-02-25 16:59:00,40.8,24.5,30.14,NE,41,0.0,1.0,52,0.00,,,0.00,WUHU216DAVISVP2,2013-02-25 21:59:00,
2013-02-25 17:04:00,40.6,24.3,30.13,NE,45,0.0,4.0,52,0.00,,,0.00,WUHU216DAVISVP2,2013-02-25 22:04:00,
2013-02-25 17:09:00,40.6,24.3,30.13,NE,45,0.0,4.0,52,0.00,,,0.00,WUHU216DAVISVP2,2013-02-25 22:09:00,
2013-02-25 17:14:00,40.5,24.2,30.13,NE,45,0.0,0.0,52,0.00,,,0.00,WUHU216DAVISVP2,2013-02-25 22:14:00,
2013-02-25 17:19:00,40.5,24.7,30.13,NE,45,0.0,1.0,53,0.00,,,0.00,WUHU216DAVISVP2,2013-02-25 22:19:00,
2013-02-25 17:24:00,40.3,24.5,30.13,NE,45,0.0,1.0,53,0.00,,,0.00,WUHU216DAVISVP2,2013-02-25 22:24:00,
2013-02-25 17:29:00,40.3,25.0,30.13,NE,45,0.0,1.0,54,0.00,,,0.00,WUHU216DAVISVP2,2013-02-25 22:29:00,
2013-02-25 17:34:00,40.2,24.4,30.14,NE,45,0.0,1.0,53,0.00,,,0.00,WUHU216DAVISVP2,2013-02-25 22:34:00,
2013-02-25 17:39:00,40.1,24.3,30.14,NE,45,0.0,1.0,53,0.00,,,0.00,WUHU216DAVISVP2,2013-02-25 22:39:00,
2013-02-25 17:44:00,40.1,24.3,30.14,NE,45,0.0,2.0,53,0.00,,,0.00,WUHU216DAVISVP2,2013-02-25 22:44:00,
2013-02-25 17:49:00,39.9,24.1,30.13,NE,45,0.0,2.0,53,0.00,,,0.00,WUHU216DAVISVP2,2013-02-25 22:49:00,
2013-02-25 17:54:00,39.8,24.5,30.13,NE,45,0.0,1.0,54,0.00,,,0.00,WUHU216DAVISVP2,2013-02-25 22:54:00,
2013-02-25 17:59:00,39.5,24.2,30.13,NE,45,0.0,1.0,54,0.00,,,0.00,WUHU216DAVISVP2,2013-02-25 22:59:00,
2013-02-25 18:04:00,39.3,24.0,30.14,NE,45,0.0,1.0,54,0.00,,,0.00,WUHU216DAVISVP2,2013-02-25 23:04:00,
2013-02-25 18:09:00,39.2,24.4,30.14,NE,45,0.0,0.0,55,0.00,,,0.00,WUHU216DAVISVP2,2013-02-25 23:09:00,
2013-02-25 18:14:00,39.1,24.3,30.14,NE,45,0.0,0.0,55,0.00,,,0.00,WUHU216DAVISVP2,2013-02-25 23:14:00,
2013-02-25 18:19:00,38.8,24.0,30.15,NE,45,0.0,0.0,55,0.00,,,0.00,WUHU216DAVISVP2,2013-02-25 23:19:00,
2013-02-25 18:24:00,38.6,23.8,30.15,NE,45,0.0,2.0,55,0.00,,,0.00,WUHU216DAVISVP2,2013-02-25 23:24:00,
2013-02-25 18:29:00,38.3,24.0,30.14,NE,45,0.0,2.0,56,0.00,,,0.00,WUHU216DAVISVP2,2013-02-25 23:29:00,
2013-02-25 18:34:00,38.2,23.9,30.14,NE,45,0.0,1.0,56,0.00,,,0.00,WUHU216DAVISVP2,2013-02-25 23:34:00,
2013-02-25 18:39:00,38.0,23.7,30.14,NE,45,0.0,1.0,56,0.00,,,0.00,WUHU216DAVISVP2,2013-02-25 23:39:00,
2013-02-25 18:44:00,38.0,23.7,30.14,NE,45,0.0,1.0,56,0.00,,,0.00,WUHU216DAVISVP2,2013-02-25 23:44:00,
2013-02-25 18:49:00,37.9,24.0,30.14,NE,45,0.0,0.0,57,0.00,,,0.00,WUHU216DAVISVP2,2013-02-25 23:49:00,
2013-02-25 18:54:00,37.8,24.0,30.14,NE,45,0.0,0.0,57,0.00,,,0.00,WUHU216DAVISVP2,2013-02-25 23:54:00,
2013-02-25 18:59:00,37.6,23.8,30.15,NE,45,0.0,0.0,57,0.00,,,0.00,WUHU216DAVISVP2,2013-02-25 23:59:00,
2013-02-25 19:04:00,37.5,23.7,30.15,NE,45,0.0,1.0,57,0.00,,,0.00,WUHU216DAVISVP2,2013-02-26 00:04:00,
2013-02-25 19:09:00,37.2,23.8,30.15,NE,45,0.0,1.0,58,0.00,,,0.00,WUHU216DAVISVP2,2013-02-26 00:09:00,
2013-02-25 19:14:00,37.0,23.6,30.14,NE,45,0.0,0.0,58,0.00,,,0.00,WUHU216DAVISVP2,2013-02-26 00:14:00,
2013-02-25 19:19:00,36.9,23.5,30.14,NE,45,0.0,0.0,58,0.00,,,0.00,WUHU216DAVISVP2,2013-02-26 00:19:00,
2013-02-25 19:24:00,36.9,23.9,30.14,NE,45,0.0,0.0,59,0.00,,,0.00,WUHU216DAVISVP2,2013-02-26 00:24:00,
2013-02-25 19:29:00,36.6,24.1,30.15,NE,45,0.0,0.0,60,0.00,,,0.00,WUHU216DAVISVP2,2013-02-26 00:29:00,
2013-02-25 19:34:00,36.5,24.0,30.15,NE,45,0.0,0.0,60,0.00,,,0.00,WUHU216DAVISVP2,2013-02-26 00:34:00,
2013-02-25 19:40:00,36.2,23.7,30.15,NE,45,0.0,0.0,60,0.00,,,0.00,WUHU216DAVISVP2,2013-02-26 00:40:00,
2013-02-25 19:45:00,35.9,23.4,30.17,NE,45,0.0,0.0,60,0.00,,,0.00,WUHU216DAVISVP2,2013-02-26 00:45:00,
2013-02-25 19:50:00,35.5,23.4,30.17,NE,45,0.0,0.0,61,0.00,,,0.00,WUHU216DAVISVP2,2013-02-26 00:50:00,
2013-02-25 19:55:00,35.2,23.5,30.17,NE,45,0.0,0.0,62,0.00,,,0.00,WUHU216DAVISVP2,2013-02-26 00:55:00,
2013-02-25 20:00:00,35.0,23.4,30.16,NE,45,0.0,0.0,62,0.00,,,0.00,WUHU216DAVISVP2,2013-02-26 01:00:00,
2013-02-25 20:05:00,34.7,23.1,30.16,NE,45,0.0,0.0,62,0.00,,,0.00,WUHU216DAVISVP2,2013-02-26 01:05:00,
2013-02-25 20:10:00,34.6,23.3,30.16,NE,45,0.0,0.0,63,0.00,,,0.00,WUHU216DAVISVP2,2013-02-26 01:10:00,
2013-02-25 20:15:00,34.3,23.0,30.16,NE,45,0.0,0.0,63,0.00,,,0.00,WUHU216DAVISVP2,2013-02-26 01:15:00,
2013-02-25 20:20:00,34.1,23.3,30.16,NE,45,0.0,0.0,64,0.00,,,0.00,WUHU216DAVISVP2,2013-02-26 01:20:00,
2013-02-25 20:25:00,33.8,22.9,30.16,NE,45,0.0,0.0,64,0.00,,,0.00,WUHU216DAVISVP2,2013-02-26 01:25:00,
2013-02-25 20:30:00,33.7,22.9,30.15,NE,45,0.0,0.0,64,0.00,,,0.00,WUHU216DAVISVP2,2013-02-26 01:30:00,
2013-02-25 20:35:00,33.5,22.7,30.15,NE,45,0.0,0.0,64,0.00,,,0.00,WUHU216DAVISVP2,2013-02-26 01:35:00,
2013-02-25 20:40:00,33.4,22.9,30.15,NE,45,0.0,0.0,65,0.00,,,0.00,WUHU216DAVISVP2,2013-02-26 01:40:00,
2013-02-25 20:45:00,33.2,22.8,30.16,NE,45,0.0,0.0,65,0.00,,,0.00,WUHU216DAVISVP2,2013-02-26 01:45:00,
2013-02-25 20:50:00,33.1,23.0,30.16,NE,45,0.0,0.0,66,0.00,,,0.00,WUHU216DAVISVP2,2013-02-26 01:50:00,
2013-02-25 20:55:00,32.9,22.9,30.16,NE,45,0.0,0.0,66,0.00,,,0.00,WUHU216DAVISVP2,2013-02-26 01:55:00,
2013-02-25 21:00:00,32.9,22.9,30.16,NE,45,0.0,0.0,66,0.00,,,0.00,WUHU216DAVISVP2,2013-02-26 02:00:00,
2013-02-25 21:05:00,32.8,22.8,30.16,NE,45,0.0,0.0,66,0.00,,,0.00,WUHU216DAVISVP2,2013-02-26 02:05:00,
2013-02-25 21:10:00,32.8,23.1,30.16,NE,45,0.0,0.0,67,0.00,,,0.00,WUHU216DAVISVP2,2013-02-26 02:10:00,
2013-02-25 21:15:00,32.8,23.1,30.15,NE,45,0.0,0.0,67,0.00,,,0.00,WUHU216DAVISVP2,2013-02-26 02:15:00,
2013-02-25 21:20:00,32.7,22.9,30.15,NE,45,0.0,0.0,67,0.00,,,0.00,WUHU216DAVISVP2,2013-02-26 02:20:00,
2013-02-25 21:25:00,32.7,23.4,30.15,NE,45,0.0,0.0,68,0.00,,,0.00,WUHU216DAVISVP2,2013-02-26 02:25:00,
2013-02-25 21:30:00,32.5,23.2,30.15,NE,45,0.0,0.0,68,0.00,,,0.00,WUHU216DAVISVP2,2013-02-26 02:30:00,
2013-02-25 21:35:00,32.4,23.1,30.15,NE,45,0.0,0.0,68,0.00,,,0.00,WUHU216DAVISVP2,2013-02-26 02:35:00,
2013-02-25 21:40:00,32.4,23.1,30.15,NE,45,0.0,0.0,68,0.00,,,0.00,WUHU216DAVISVP2,2013-02-26 02:40:00,
2013-02-25 21:45:00,32.2,23.2,30.17,NE,45,0.0,0.0,69,0.00,,,0.00,WUHU216DAVISVP2,2013-02-26 02:45:00,
2013-02-25 21:50:00,32.2,23.6,30.17,NE,45,0.0,0.0,70,0.00,,,0.00,WUHU216DAVISVP2,2013-02-26 02:50:00,
2013-02-25 21:55:00,32.1,23.4,30.17,NE,45,0.0,0.0,70,0.00,,,0.00,WUHU216DAVISVP2,2013-02-26 02:55:00,
2013-02-25 22:00:00,31.9,23.2,30.13,NE,45,0.0,0.0,70,0.00,,,0.00,WUHU216DAVISVP2,2013-02-26 03:00:00,
2013-02-25 22:05:00,31.8,23.2,30.13,NE,45,0.0,0.0,70,0.00,,,0.00,WUHU216DAVISVP2,2013-02-26 03:05:00,
2013-02-25 22:10:00,31.8,23.2,30.13,NE,45,0.0,0.0,70,0.00,,,0.00,WUHU216DAVISVP2,2013-02-26 03:10:00,
2013-02-25 22:15:00,31.8,23.2,30.15,NE,45,0.0,0.0,70,0.00,,,0.00,WUHU216DAVISVP2,2013-02-26 03:15:00,
2013-02-25 22:20:00,31.6,23.0,30.15,NE,45,0.0,0.0,70,0.00,,,0.00,WUHU216DAVISVP2,2013-02-26 03:20:00,
2013-02-25 22:25:00,31.8,23.2,30.15,NE,45,0.0,0.0,70,0.00,,,0.00,WUHU216DAVISVP2,2013-02-26 03:25:00,
2013-02-25 22:30:00,31.9,23.3,30.15,NE,45,0.0,0.0,70,0.00,,,0.00,WUHU216DAVISVP2,2013-02-26 03:30:00,
2013-02-25 22:35:00,32.4,23.8,30.15,NE,45,0.0,2.0,70,0.00,,,0.00,WUHU216DAVISVP2,2013-02-26 03:35:00,
2013-02-25 22:40:00,32.8,24.2,30.15,NE,45,0.0,2.0,70,0.00,,,0.00,WUHU216DAVISVP2,2013-02-26 03:40:00,
2013-02-25 22:46:00,32.9,23.9,30.14,NE,45,0.0,1.0,69,0.00,,,0.00,WUHU216DAVISVP2,2013-02-26 03:46:00,
2013-02-25 22:51:00,33.1,24.1,30.14,NE,45,0.0,1.0,69,0.00,,,0.00,WUHU216DAVISVP2,2013-02-26 03:51:00,
2013-02-25 22:56:00,33.4,24.4,30.14,NE,45,0.0,2.0,69,0.00,,,0.00,WUHU216DAVISVP2,2013-02-26 03:56:00,
2013-02-25 23:01:00,33.5,24.5,30.13,NE,51,2.0,4.0,69,0.00,,,0.00,WUHU216DAVISVP2,2013-02-26 04:01:00,
2013-02-25 23:07:00,33.8,24.8,30.13,NE,51,0.0,6.0,69,0.00,,,0.00,WUHU216DAVISVP2,2013-02-26 04:07:00,
2013-02-25 23:12:00,34.0,24.5,30.13,NE,52,1.0,6.0,68,0.00,,,0.00,WUHU216DAVISVP2,2013-02-26 04:12:00,
2013-02-25 23:17:00,34.1,24.7,30.13,ESE,112,0.0,4.0,68,0.00,,,0.00,WUHU216DAVISVP2,2013-02-26 04:17:00,
2013-02-25 23:22:00,34.3,24.9,30.13,ENE,73,0.0,4.0,68,0.00,,,0.00,WUHU216DAVISVP2,2013-02-26 04:22:00,
2013-02-25 23:27:00,34.1,24.7,30.13,ENE,72,0.0,4.0,68,0.00,,,0.00,WUHU216DAVISVP2,2013-02-26 04:27:00,
2013-02-25 23:32:00,34.1,24.7,30.12,ENE,72,0.0,1.0,68,0.00,,,0.00,WUHU216DAVISVP2,2013-02-26 04:32:00,
2013-02-25 23:37:00,34.0,24.6,30.12,ENE,72,0.0,0.0,68,0.00,,,0.00,WUHU216DAVISVP2,2013-02-26 04:37:00,
2013-02-25 23:42:00,33.7,24.3,30.12,ENE,72,0.0,0.0,68,0.00,,,0.00,WUHU216DAVISVP2,2013-02-26 04:42:00,
2013-02-25 23:47:00,33.7,24.3,30.12,ENE,72,0.0,1.0,68,0.00,,,0.00,WUHU216DAVISVP2,2013-02-26 04:47:00,
2013-02-25 23:52:00,33.5,24.1,30.12,ENE,72,0.0,1.0,68,0.00,,,0.00,WUHU216DAVISVP2,2013-02-26 04:52:00,
2013-02-25 23:57:00,33.4,24.3,30.12,ENE,72,0.0,0.0,69,0.00,,,0.00,WUHU216DAVISVP2,2013-02-26 04:57:00,